createdAt,value
2018-05-03T00:02:08.140Z,99952.75
2018-05-03T00:04:35.509Z,99961.63
2018-05-03T00:07:02.905Z,99957.84
2018-05-03T00:09:30.323Z,99956.64
2018-05-03T00:11:57.719Z,99953.83
2018-05-03T00:14:25.133Z,99959.55
2018-05-03T00:16:52.540Z,99959.50
2018-05-03T00:19:19.944Z,99969.98
2018-05-03T00:21:47.440Z,99976.68
2018-05-03T00:24:14.832Z,99977.84
2018-05-03T00:26:42.267Z,99986.90
2018-05-03T00:29:09.675Z,99987.08
2018-05-03T00:31:37.092Z,99992.75
2018-05-03T00:34:04.518Z,100000.47
2018-05-03T00:36:31.919Z,99996.89
2018-05-03T00:38:59.340Z,100005.73
2018-05-03T00:41:26.744Z,100008.08
2018-05-03T00:43:54.167Z,100010.00
2018-05-03T00:46:21.568Z,100007.63
2018-05-03T00:48:48.988Z,100009.55
2018-05-03T00:51:16.404Z,100007.74
2018-05-03T00:53:43.812Z,100011.04
2018-05-03T00:56:11.229Z,100017.33
2018-05-03T00:58:38.629Z,100022.84
2018-05-03T01:01:06.044Z,100025.73
2018-05-03T01:03:33.443Z,100020.94
2018-05-03T01:06:00.875Z,100027.18
2018-05-03T01:08:28.273Z,100031.50
2018-05-03T01:10:55.676Z,100026.84
2018-05-03T01:13:23.100Z,100027.77
2018-05-03T01:15:50.503Z,100027.94
2018-05-03T01:18:17.923Z,100043.70
2018-05-03T01:20:45.328Z,100043.64
2018-05-03T01:23:12.748Z,100045.19
2018-05-03T01:25:40.148Z,100050.08
2018-05-03T01:28:07.557Z,100046.27
2018-05-03T01:30:35.028Z,100046.44
2018-05-03T01:33:02.576Z,100045.80
2018-05-03T01:35:41.933Z,100043.73
2018-05-03T01:38:09.377Z,100043.09
2018-05-03T01:40:36.787Z,100045.61
2018-05-03T01:43:04.191Z,100042.03
2018-05-03T01:45:31.615Z,100036.04
2018-05-03T01:47:59.051Z,100041.14
2018-05-03T01:50:26.484Z,100047.41
2018-05-03T01:52:53.889Z,100055.28
2018-05-03T01:55:21.308Z,100053.66
2018-05-03T01:57:48.743Z,100057.56
2018-05-03T02:00:16.131Z,100055.16
2018-05-03T02:02:43.558Z,100051.75
2018-05-03T02:05:10.955Z,100056.28
2018-05-03T02:07:38.375Z,100062.73
2018-05-03T02:10:05.789Z,100066.47
2018-05-03T02:12:33.212Z,100069.22
2018-05-03T02:15:00.612Z,100061.91
2018-05-03T02:17:28.040Z,100062.47
2018-05-03T02:19:55.451Z,100068.33
2018-05-03T02:22:23.003Z,100070.22
2018-05-03T02:24:50.407Z,100072.54
2018-05-03T02:27:18.135Z,100079.62
2018-05-03T02:29:45.540Z,100079.97
2018-05-03T02:32:12.949Z,100085.25
2018-05-03T02:34:40.383Z,100085.83
2018-05-03T02:37:07.788Z,100095.47
2018-05-03T02:39:35.204Z,100092.88
2018-05-03T02:42:02.624Z,100095.45
2018-05-03T02:44:30.033Z,100094.59
2018-05-03T02:46:57.443Z,100098.36
2018-05-03T02:49:24.861Z,100102.10
2018-05-03T02:51:52.276Z,100102.28
2018-05-03T02:54:19.736Z,100104.64
2018-05-03T02:56:47.163Z,100085.81
2018-05-03T02:59:26.433Z,100097.91
2018-05-03T03:01:59.520Z,100112.69
2018-05-03T03:04:44.432Z,100113.25
2018-05-03T03:10:42.720Z,100121.55
2018-05-03T03:13:18.494Z,100125.09
2018-05-03T03:16:03.557Z,100126.48
2018-05-03T03:18:48.640Z,100125.50
2018-05-03T03:21:33.506Z,100125.27
2018-05-03T03:24:18.589Z,100123.81
2018-05-03T03:27:01.328Z,100122.03
2018-05-03T03:29:43.645Z,100123.97
2018-05-03T03:32:22.720Z,100129.06
2018-05-03T03:37:56.972Z,100141.44
2018-05-03T03:40:36.628Z,100148.14
2018-05-03T03:43:04.775Z,100155.23
2018-05-03T03:45:32.172Z,100158.22
2018-05-03T03:47:59.612Z,100155.14
2018-05-03T03:50:27.020Z,100163.09
2018-05-03T03:52:54.784Z,100169.27
2018-05-03T03:55:22.355Z,100164.33
2018-05-03T03:57:49.767Z,100165.56
2018-05-03T04:00:17.176Z,100163.10
2018-05-03T04:02:44.604Z,100167.24
2018-05-03T04:05:12.019Z,100169.86
2018-05-03T04:07:39.441Z,100178.56
2018-05-03T04:10:06.856Z,100178.14
2018-05-03T04:12:34.298Z,100174.75
2018-05-03T04:15:01.716Z,100184.06
2018-05-03T04:17:40.995Z,100189.84
2018-05-03T04:20:16.188Z,100183.19
2018-05-03T04:22:56.328Z,100190.59
2018-05-03T04:25:35.427Z,100189.84
2018-05-03T04:28:02.849Z,100200.59
2018-05-03T04:30:30.259Z,100196.54
2018-05-03T04:32:57.669Z,100199.70
2018-05-03T04:35:25.096Z,100199.13
2018-05-03T04:37:52.515Z,100211.02
2018-05-03T04:40:19.944Z,100208.23
2018-05-03T04:42:47.360Z,100208.89
2018-05-03T04:45:14.808Z,100208.17
2018-05-03T04:47:42.226Z,100210.61
2018-05-03T04:50:09.652Z,100218.39
2018-05-03T04:52:37.080Z,100226.80
2018-05-03T04:55:04.515Z,100219.73
2018-05-03T04:57:31.922Z,100234.20
2018-05-03T04:59:59.740Z,100238.82
2018-05-03T05:02:27.147Z,100236.70
2018-05-03T05:04:54.561Z,100243.86
2018-05-03T05:07:21.979Z,100240.94
2018-05-03T05:09:49.392Z,100254.48
2018-05-03T05:12:16.813Z,100246.44
2018-05-03T05:14:44.225Z,100262.25
2018-05-03T05:17:11.647Z,100270.08
2018-05-03T05:19:39.057Z,100269.00
2018-05-03T05:22:06.483Z,100281.98
2018-05-03T05:24:33.899Z,100287.03
2018-05-03T05:27:01.330Z,100285.55
2018-05-03T05:29:28.746Z,100284.66
2018-05-03T05:31:56.155Z,100293.44
2018-05-03T05:34:23.581Z,100291.70
2018-05-03T05:36:51.014Z,100297.50
2018-05-03T05:39:18.428Z,100299.67
2018-05-03T05:41:45.841Z,100296.87
2018-05-03T05:44:13.669Z,100301.63
2018-05-03T05:46:41.033Z,100305.77
2018-05-03T05:49:08.438Z,100306.48
2018-05-03T05:51:35.868Z,100312.68
2018-05-03T05:54:03.276Z,100310.39
2018-05-03T05:56:30.710Z,100317.78
2018-05-03T05:58:58.132Z,100320.90
2018-05-03T06:01:25.546Z,100326.95
2018-05-03T06:03:52.972Z,100331.30
2018-05-03T06:06:20.384Z,100332.80
2018-05-03T06:08:47.813Z,100329.89
2018-05-03T06:11:15.220Z,100339.79
2018-05-03T06:13:42.645Z,100344.89
2018-05-03T06:16:10.064Z,100344.98
2018-05-03T06:18:37.508Z,100345.67
2018-05-03T06:21:04.940Z,100351.46
2018-05-03T06:23:32.378Z,100352.89
2018-05-03T06:25:59.871Z,100357.99
2018-05-03T06:28:27.240Z,100359.97
2018-05-03T06:30:54.665Z,100364.45
2018-05-03T06:33:22.072Z,100358.23
2018-05-03T06:35:49.580Z,100367.24
2018-05-03T06:38:16.916Z,100380.42
2018-05-03T06:40:44.344Z,100382.21
2018-05-03T06:43:11.757Z,100377.58
2018-05-03T06:45:39.178Z,100392.80
2018-05-03T06:48:06.592Z,100388.48
2018-05-03T06:50:33.999Z,100392.90
2018-05-03T06:53:01.396Z,100389.11
2018-05-03T06:55:28.815Z,100386.34
2018-05-03T06:57:56.224Z,100396.35
2018-05-03T07:00:23.648Z,100396.52
2018-05-03T07:02:51.048Z,100397.58
2018-05-03T07:05:18.493Z,100401.23
2018-05-03T07:07:45.887Z,100408.49
2018-05-03T07:10:13.299Z,100414.45
2018-05-03T07:12:40.707Z,100421.45
2018-05-03T07:15:08.134Z,100429.21
2018-05-03T07:17:35.541Z,100431.78
2018-05-03T07:20:02.939Z,100432.56
2018-05-03T07:22:30.362Z,100451.03
2018-05-03T07:24:57.763Z,100441.95
2018-05-03T07:27:25.201Z,100444.72
2018-05-03T07:29:52.616Z,100439.64
2018-05-03T07:32:20.033Z,100440.86
2018-05-03T07:34:47.502Z,100439.70
2018-05-03T07:37:14.848Z,100445.51
2018-05-03T07:39:42.252Z,100452.68
2018-05-03T07:42:09.720Z,100448.38
2018-05-03T07:44:37.128Z,100453.53
2018-05-03T07:47:04.681Z,100453.87
2018-05-03T07:49:32.116Z,100450.34
2018-05-03T07:51:59.547Z,100459.98
2018-05-03T07:54:26.959Z,100462.73
2018-05-03T07:56:54.375Z,100465.45
2018-05-03T07:59:21.780Z,100463.66
2018-05-03T08:01:49.204Z,100471.17
2018-05-03T08:04:16.603Z,100482.14
2018-05-03T08:06:44.044Z,100468.98
2018-05-03T08:09:11.444Z,100477.45
2018-05-03T08:11:38.868Z,100493.63
2018-05-03T08:14:06.292Z,100488.68
2018-05-03T08:16:33.706Z,100489.99
2018-05-03T08:19:01.162Z,100494.84
2018-05-03T08:21:28.579Z,100504.13
2018-05-03T08:23:56.252Z,100506.62
2018-05-03T08:26:23.651Z,100506.07
2018-05-03T08:28:51.064Z,100514.03
2018-05-03T08:31:18.501Z,100516.80
2018-05-03T08:33:45.919Z,100516.87
2018-05-03T08:36:13.351Z,100517.20
2018-05-03T08:38:40.748Z,100522.05
2018-05-03T08:41:08.170Z,100525.59
2018-05-03T08:43:35.567Z,100528.94
2018-05-03T08:46:03.005Z,100531.88
2018-05-03T08:48:30.417Z,100537.46
2018-05-03T08:50:57.847Z,100532.94
2018-05-03T08:53:25.256Z,100534.97
2018-05-03T08:55:52.842Z,100544.10
2018-05-03T08:58:20.079Z,100544.38
2018-05-03T09:00:47.501Z,100534.48
2018-05-03T09:03:14.919Z,100540.73
2018-05-03T09:05:42.320Z,100544.27
2018-05-03T09:08:09.739Z,100554.59
2018-05-03T09:10:37.217Z,100548.30
2018-05-03T09:13:04.653Z,100563.02
2018-05-03T09:15:32.080Z,100566.75
2018-05-03T09:17:59.516Z,100561.12
2018-05-03T09:20:26.923Z,100568.27
2018-05-03T09:22:54.341Z,100564.84
2018-05-03T09:25:21.752Z,100568.80
2018-05-03T09:27:49.176Z,100569.14
2018-05-03T09:30:16.580Z,100573.40
2018-05-03T09:32:43.996Z,100568.59
2018-05-03T09:35:11.400Z,100580.17
2018-05-03T09:37:38.848Z,100586.72
2018-05-03T09:40:06.252Z,100582.26
2018-05-03T09:42:33.681Z,100582.55
2018-05-03T09:45:01.083Z,100584.50
2018-05-03T09:47:28.492Z,100580.33
2018-05-03T09:49:55.913Z,100582.42
2018-05-03T09:52:23.336Z,100592.77
2018-05-03T09:54:50.769Z,100592.03
2018-05-03T09:57:18.199Z,100598.45
2018-05-03T09:59:45.636Z,100596.66
2018-05-03T10:02:13.068Z,100594.25
2018-05-03T10:04:40.547Z,100593.45
2018-05-03T10:07:07.892Z,100600.17
2018-05-03T10:09:35.314Z,100602.27
2018-05-03T10:12:02.729Z,100595.70
2018-05-03T10:14:30.213Z,100600.03
2018-05-03T10:16:57.741Z,100599.64
2018-05-03T10:19:25.149Z,100598.56
2018-05-03T10:21:52.816Z,100599.98
2018-05-03T10:24:20.228Z,100594.20
2018-05-03T10:26:47.650Z,100598.80
2018-05-03T10:29:15.048Z,100611.44
2018-05-03T10:31:42.464Z,100607.76
2018-05-03T10:34:09.868Z,100609.95
2018-05-03T10:36:37.272Z,100606.19
2018-05-03T10:39:04.719Z,100607.97
2018-05-03T10:41:32.130Z,100616.53
2018-05-03T10:43:59.549Z,100615.55
2018-05-03T10:46:27.681Z,100618.14
2018-05-03T10:48:55.134Z,100617.73
2018-05-03T10:51:22.540Z,100614.95
2018-05-03T10:53:50.100Z,100615.36
2018-05-03T10:56:17.536Z,100617.92
2018-05-03T10:58:44.952Z,100612.35
2018-05-03T11:01:12.365Z,100620.48
2018-05-03T11:03:39.769Z,100618.99
2018-05-03T11:06:07.199Z,100611.28
2018-05-03T11:08:34.611Z,100619.11
2018-05-03T11:11:02.040Z,100615.45
2018-05-03T11:13:29.459Z,100612.79
2018-05-03T11:15:56.876Z,100608.67
2018-05-03T11:18:24.272Z,100612.44
2018-05-03T11:20:51.706Z,100614.66
2018-05-03T11:23:19.163Z,100612.78
2018-05-03T11:25:46.557Z,100618.99
2018-05-03T11:28:13.971Z,100611.95
2018-05-03T11:30:41.381Z,100629.17
2018-05-03T11:33:08.800Z,100620.72
2018-05-03T11:35:36.205Z,100626.08
2018-05-03T11:38:03.628Z,100628.75
2018-05-03T11:40:31.045Z,100631.66
2018-05-03T11:42:58.499Z,100628.14
2018-05-03T11:45:25.929Z,100633.60
2018-05-03T11:47:53.327Z,100638.03
2018-05-03T11:50:20.751Z,100629.75
2018-05-03T11:52:48.155Z,100637.20
2018-05-03T11:55:15.888Z,100636.38
2018-05-03T11:57:43.295Z,100642.83
2018-05-03T12:00:10.700Z,100645.50
2018-05-03T12:02:38.128Z,100645.39
2018-05-03T12:05:05.589Z,100644.92
2018-05-03T12:07:32.953Z,100649.03
2018-05-03T12:10:00.369Z,100647.33
2018-05-03T12:12:27.784Z,100656.58
2018-05-03T12:14:55.185Z,100655.48
2018-05-03T12:17:22.603Z,100653.55
2018-05-03T12:19:50.004Z,100658.24
2018-05-03T12:22:17.416Z,100650.66
2018-05-03T12:24:44.830Z,100657.53
2018-05-03T12:27:12.247Z,100648.92
2018-05-03T12:29:39.643Z,100646.59
2018-05-03T12:32:07.059Z,100642.71
2018-05-03T12:34:34.471Z,100653.53
2018-05-03T12:37:01.934Z,100655.11
2018-05-03T12:39:29.358Z,100647.17
2018-05-03T12:41:56.756Z,100642.80
2018-05-03T12:44:24.179Z,100652.69
2018-05-03T12:46:51.604Z,100640.80
2018-05-03T12:49:19.005Z,100638.61
2018-05-03T12:51:46.432Z,100633.87
2018-05-03T12:54:13.816Z,100638.26
2018-05-03T12:56:41.251Z,100642.84
2018-05-03T12:59:08.650Z,100652.83
2018-05-03T13:01:36.075Z,100650.62
2018-05-03T13:04:03.587Z,100656.33
2018-05-03T13:06:31.000Z,100661.16
2018-05-03T13:08:58.400Z,100658.78
2018-05-03T13:11:25.820Z,100663.02
2018-05-03T13:13:53.232Z,100663.98
2018-05-03T13:16:20.636Z,100666.39
2018-05-03T13:18:48.068Z,100675.52
2018-05-03T13:21:15.476Z,100668.92
2018-05-03T13:23:42.894Z,100673.77
2018-05-03T13:26:10.297Z,100674.80
2018-05-03T13:28:37.715Z,100676.77
2018-05-03T13:31:05.121Z,100682.30
2018-05-03T13:33:32.546Z,100683.75
2018-05-03T13:35:59.952Z,100678.81
2018-05-03T13:38:27.412Z,100687.38
2018-05-03T13:40:54.835Z,100681.38
2018-05-03T13:43:22.234Z,100677.98
2018-05-03T13:45:49.632Z,100677.63
2018-05-03T13:48:17.048Z,100672.18
2018-05-03T13:50:44.462Z,100678.30
2018-05-03T13:53:11.886Z,100675.44
2018-05-03T13:55:39.284Z,100675.86
2018-05-03T13:58:06.712Z,100674.16
2018-05-03T14:00:34.112Z,100678.16
2018-05-03T14:03:01.546Z,100672.37
2018-05-03T14:05:28.936Z,100670.98
2018-05-03T14:07:56.363Z,100668.79
2018-05-03T14:10:23.838Z,100666.80
2018-05-03T14:15:30.556Z,100674.56
2018-05-03T14:17:57.963Z,100669.98
2018-05-03T14:20:25.364Z,100676.36
2018-05-03T14:22:52.780Z,100675.95
2018-05-03T14:25:20.195Z,100669.20
2018-05-03T14:27:47.611Z,100668.38
2018-05-03T14:30:15.012Z,100671.79
2018-05-03T14:32:42.443Z,100664.60
2018-05-03T14:35:09.884Z,100668.41
2018-05-03T14:37:37.309Z,100664.02
2018-05-03T14:40:04.711Z,100671.17
2018-05-03T14:42:32.128Z,100666.41
2018-05-03T14:44:59.543Z,100651.83
2018-05-03T14:47:27.009Z,100667.57
2018-05-03T14:49:54.488Z,100672.77
2018-05-03T14:52:21.905Z,100671.78
2018-05-03T14:54:49.378Z,100674.34
2018-05-03T14:57:16.792Z,100677.33
2018-05-03T14:59:44.455Z,100669.79
2018-05-03T15:02:11.873Z,100674.77
2018-05-03T15:04:39.307Z,100675.16
2018-05-03T15:07:06.765Z,100673.98
2018-05-03T15:09:34.186Z,100673.77
2018-05-03T15:12:01.589Z,100679.55
2018-05-03T15:14:28.996Z,100680.35
2018-05-03T15:16:56.467Z,100686.15
2018-05-03T15:19:23.887Z,100683.55
2018-05-03T15:21:51.303Z,100683.34
2018-05-03T15:24:18.822Z,100678.56
2018-05-03T15:26:46.103Z,100673.58
2018-05-03T15:29:13.524Z,100677.56
2018-05-03T15:31:40.938Z,100683.13
2018-05-03T15:34:08.372Z,100682.34
2018-05-03T15:36:35.770Z,100690.12
2018-05-03T15:39:03.188Z,100686.75
2018-05-03T15:41:30.598Z,100679.55
2018-05-03T15:43:58.013Z,100686.75
2018-05-03T15:46:25.483Z,100681.95
2018-05-03T15:48:52.899Z,100687.52
2018-05-03T15:51:20.481Z,100680.50
2018-05-03T15:53:47.888Z,100684.33
2018-05-03T15:56:15.291Z,100686.08
2018-05-03T15:58:42.711Z,100689.66
2018-05-03T16:01:10.112Z,100692.67
2018-05-03T16:03:37.527Z,100693.78
2018-05-03T16:06:04.948Z,100693.53
2018-05-03T16:08:32.639Z,100699.09
2018-05-03T16:11:00.048Z,100702.30
2018-05-03T16:13:27.476Z,100699.65
2018-05-03T16:15:54.893Z,100705.23
2018-05-03T16:18:22.412Z,100705.42
2018-05-03T16:20:49.827Z,100703.60
2018-05-03T16:23:17.238Z,100708.96
2018-05-03T16:25:44.661Z,100711.75
2018-05-03T16:28:12.051Z,100714.96
2018-05-03T16:30:39.476Z,100712.00
2018-05-03T16:33:06.887Z,100713.61
2018-05-03T16:35:34.300Z,100715.57
2018-05-03T16:38:01.704Z,100719.55
2018-05-03T16:40:29.119Z,100723.11
2018-05-03T16:42:56.524Z,100722.13
2018-05-03T16:45:23.948Z,100717.71
2018-05-03T16:47:51.348Z,100721.02
2018-05-03T16:50:18.751Z,100724.77
2018-05-03T16:52:46.172Z,100729.13
2018-05-03T16:55:13.606Z,100718.95
2018-05-03T16:57:41.033Z,100717.77
2018-05-03T17:00:08.430Z,100720.80
2018-05-03T17:02:35.827Z,100724.34
2018-05-03T17:05:03.243Z,100726.91
2018-05-03T17:07:30.661Z,100732.85
2018-05-03T17:09:58.088Z,100735.20
2018-05-03T17:12:25.497Z,100740.38
2018-05-03T17:14:52.927Z,100741.95
2018-05-03T17:17:20.335Z,100735.48
2018-05-03T17:19:47.743Z,100747.15
2018-05-03T17:22:15.169Z,100749.64
2018-05-03T17:24:42.563Z,100745.46
2018-05-03T17:27:09.982Z,100749.16
2018-05-03T17:29:37.388Z,100749.52
2018-05-03T17:32:04.813Z,100748.50
2018-05-03T17:34:32.228Z,100744.50
2018-05-03T17:36:59.656Z,100754.39
2018-05-03T17:39:27.063Z,100751.02
2018-05-03T17:41:54.519Z,100752.18
2018-05-03T17:44:21.936Z,100757.97
2018-05-03T17:46:49.308Z,100765.07
2018-05-03T17:49:16.713Z,100758.52
2018-05-03T17:51:44.123Z,100760.08
2018-05-03T17:54:11.540Z,100760.66
2018-05-03T17:56:38.951Z,100765.25
2018-05-03T17:59:06.369Z,100768.39
2018-05-03T18:01:33.789Z,100770.14
2018-05-03T18:04:01.200Z,100771.45
2018-05-03T18:06:28.607Z,100775.78
2018-05-03T18:08:56.011Z,100785.70
2018-05-03T18:11:23.436Z,100790.45
2018-05-03T18:13:50.831Z,100794.53
2018-05-03T18:16:18.296Z,100802.48
2018-05-03T18:18:45.652Z,100798.88
2018-05-03T18:21:13.139Z,100799.41
2018-05-03T18:23:40.559Z,100799.09
2018-05-03T18:26:08.016Z,100817.17
2018-05-03T18:28:35.393Z,100822.05
2018-05-03T18:31:02.783Z,100825.35
2018-05-03T18:33:30.210Z,100828.47
2018-05-03T18:35:57.636Z,100835.18
2018-05-03T18:38:25.052Z,100844.03
2018-05-03T18:40:52.464Z,100851.29
2018-05-03T18:43:19.877Z,100850.62
2018-05-03T18:45:47.280Z,100852.12
2018-05-03T18:48:15.672Z,100852.75
2018-05-03T18:50:43.099Z,100853.63
2018-05-03T18:53:10.513Z,100860.28
2018-05-03T18:55:38.184Z,100865.13
2018-05-03T18:58:05.613Z,100869.38
2018-05-03T19:00:33.018Z,100877.34
2018-05-03T19:03:00.436Z,100883.19
2018-05-03T19:05:27.835Z,100885.00
2018-05-03T19:07:55.268Z,100891.86
2018-05-03T19:10:22.751Z,100890.81
2018-05-03T19:12:50.281Z,100886.40
2018-05-03T19:15:17.683Z,100891.13
2018-05-03T19:17:45.100Z,100887.87
2018-05-03T19:20:12.500Z,100892.59
2018-05-03T19:22:39.912Z,100900.02
2018-05-03T19:25:07.325Z,100899.53
2018-05-03T19:27:34.745Z,100906.20
2018-05-03T19:30:02.161Z,100915.97
2018-05-03T19:32:29.563Z,100918.09
2018-05-03T19:34:56.985Z,100916.39
2018-05-03T19:37:24.392Z,100920.07
2018-05-03T19:39:52.086Z,100925.06
2018-05-03T19:42:19.491Z,100928.88
2018-05-03T19:44:46.897Z,100934.59
2018-05-03T19:47:14.587Z,100930.31
2018-05-03T19:49:42.004Z,100933.78
2018-05-03T19:52:09.411Z,100935.58
2018-05-03T19:54:36.832Z,100940.78
2018-05-03T19:57:04.236Z,100940.83
2018-05-03T19:59:31.646Z,100945.42
2018-05-03T20:01:59.069Z,100952.89
2018-05-03T20:04:26.488Z,100942.13
2018-05-03T20:06:53.911Z,100945.01
2018-05-03T20:09:21.317Z,100946.73
2018-05-03T20:11:48.866Z,100949.07
2018-05-03T20:14:16.363Z,100950.59
2018-05-03T20:16:43.790Z,100955.87
2018-05-03T20:19:11.365Z,100950.47
2018-05-03T20:21:38.764Z,100950.55
2018-05-03T20:24:06.197Z,100960.70
2018-05-03T20:26:33.609Z,100963.11
2018-05-03T20:29:01.016Z,100968.69
2018-05-03T20:31:28.416Z,100971.16
2018-05-03T20:33:55.840Z,100968.77
2018-05-03T20:36:23.251Z,100969.75
2018-05-03T20:38:50.669Z,100975.39
2018-05-03T20:41:18.096Z,100975.35
2018-05-03T20:43:45.500Z,100972.48
2018-05-03T20:46:12.987Z,100978.15
2018-05-03T20:48:40.340Z,100993.30
2018-05-03T20:51:07.741Z,100986.88
2018-05-03T20:53:35.147Z,100993.25
2018-05-03T20:56:02.642Z,100995.36
2018-05-03T20:58:30.040Z,100993.63
2018-05-03T21:00:57.765Z,101000.06
2018-05-03T21:03:25.170Z,101006.50
2018-05-03T21:05:52.571Z,101006.89
2018-05-03T21:08:19.999Z,101010.52
2018-05-03T21:10:47.435Z,101008.08
2018-05-03T21:13:14.844Z,101012.00
2018-05-03T21:15:42.252Z,101019.58
2018-05-03T21:18:09.675Z,101018.70
2018-05-03T21:20:37.109Z,101018.83
2018-05-03T21:23:04.524Z,101020.20
2018-05-03T21:25:31.939Z,101027.48
2018-05-03T21:27:59.391Z,101026.34
2018-05-03T21:30:26.793Z,101022.66
2018-05-03T21:32:54.195Z,101021.23
2018-05-03T21:35:21.619Z,101021.52
2018-05-03T21:37:49.032Z,101022.94
2018-05-03T21:40:16.453Z,101029.67
2018-05-03T21:42:43.855Z,101034.91
2018-05-03T21:45:11.279Z,101028.64
2018-05-03T21:47:38.688Z,101040.87
2018-05-03T21:50:06.107Z,101033.47
2018-05-03T21:52:33.508Z,101043.02
2018-05-03T21:55:00.920Z,101040.82
2018-05-03T21:57:28.319Z,101047.06
2018-05-03T21:59:55.743Z,101045.23
2018-05-03T22:02:23.148Z,101045.50
2018-05-03T22:04:50.572Z,101048.20
2018-05-03T22:07:17.989Z,101051.89
2018-05-03T22:09:45.385Z,101056.19
2018-05-03T22:12:12.804Z,101051.52
2018-05-03T22:14:40.208Z,101022.78
2018-05-03T22:17:07.630Z,101052.31
2018-05-03T22:19:35.039Z,101055.10
2018-05-03T22:22:02.451Z,101057.56
2018-05-03T22:24:29.865Z,101056.42
2018-05-03T22:26:57.296Z,101061.33
2018-05-03T22:29:24.700Z,101061.36
2018-05-03T22:31:52.100Z,101065.45
2018-05-03T22:34:19.515Z,101065.77
2018-05-03T22:36:46.926Z,101066.28
2018-05-03T22:39:14.340Z,101066.14
2018-05-03T22:41:41.756Z,101072.27
2018-05-03T22:44:09.177Z,101067.72
2018-05-03T22:46:36.611Z,101058.79
2018-05-03T22:49:04.064Z,101058.25
2018-05-03T22:51:31.456Z,101057.89
2018-05-03T22:53:58.876Z,101058.11
2018-05-03T22:56:26.861Z,101068.09
2018-05-03T22:58:54.272Z,101062.62
2018-05-03T23:01:21.679Z,101061.21
2018-05-03T23:03:49.178Z,101062.98
2018-05-03T23:06:16.583Z,101061.83
2018-05-03T23:08:43.989Z,101063.52
2018-05-03T23:11:11.404Z,101069.35
2018-05-03T23:13:38.808Z,101071.30
2018-05-03T23:16:06.235Z,101062.16
2018-05-03T23:18:33.640Z,101069.97
2018-05-03T23:21:01.056Z,101065.98
2018-05-03T23:23:28.468Z,101071.52
2018-05-03T23:25:55.882Z,101067.73
2018-05-03T23:28:23.295Z,101063.29
2018-05-03T23:30:50.707Z,101060.58
2018-05-03T23:33:18.127Z,101061.09
2018-05-03T23:35:45.560Z,101051.98
2018-05-03T23:38:12.984Z,101060.63
2018-05-03T23:40:40.400Z,101052.16
2018-05-03T23:43:07.831Z,101049.45
2018-05-03T23:45:35.239Z,101048.13
2018-05-03T23:48:02.659Z,101048.79
2018-05-03T23:50:30.055Z,101049.23
2018-05-03T23:52:57.472Z,101058.08
2018-05-03T23:55:24.876Z,101052.33
2018-05-03T23:57:52.305Z,101058.95
